Monday, December 5, 2016, 11:34 AM EST

KDOV, Dover Air Force Base

Location: Dover, DE, United States Lat: 39.133
Local Time: 11:34 AM EST (16:34 GMT) Lon: -75.467
Time Zone: US/Eastern Elev: 29 ft

Show me the last for .
Show Decoded

2016-12-05 11:18 METAR KDOV 051618Z AUTO 28007KT 10SM OVC011 08/08 A3000 =
2016-12-05 11:03 METAR KDOV 051603Z AUTO 27005KT 10SM BKN010 08/08 A3001 RMK AO2 BKN V OVC $ =
2016-12-05 10:58 METAR KDOV 051558Z AUTO 29006KT 10SM OVC011 08/08 A3001 =
2016-12-05 10:53 METAR KDOV 051553Z AUTO 26006KT 10SM OVC011 08/08 A3001 RMK AO2 $ =
2016-12-05 10:33 METAR KDOV 051533Z AUTO 28006KT 10SM OVC010 07/07 A3001 RMK AO2 CIG 009V011 $ =
2016-12-05 10:08 METAR KDOV 051508Z AUTO 28008KT 10SM OVC009 07/07 A3002 RMK AO2 =
2016-12-05 09:58 METAR KDOV 051458Z AUTO 26008KT 10SM OVC010 07/07 A3002 RMK AO2 SLP169 T00700070
                 53005 $ =
2016-12-05 09:18 METAR KDOV 051418Z AUTO 23006KT 10SM OVC010 06/06 A3002 RMK AO2 CIG 007V012 CIG
                 006 RWY19 $ =
2016-12-05 09:13 METAR KDOV 051413Z AUTO 23005KT 10SM BKN007 OVC012 06/06 A3002 RMK AO2 CIG
                 005V011 $ =
2016-12-05 09:08 METAR KDOV 051408Z AUTO 23006KT 10SM SCT005 OVC011 06/06 A3002 RMK AO2 CIG
                 005V011 CIG 006 RWY19 $ =
2016-12-05 08:58 METAR KDOV 051358Z AUTO VRB04KT 10SM BKN005 OVC013 06/06 A3002 =
2016-12-05 08:43 METAR KDOV 051343Z AUTO 24007KT 10SM BKN005 OVC021 06/06 A3001 RMK AO2 CIG
                 005V021 $ =
2016-12-05 08:38 METAR KDOV 051338Z AUTO 25004KT 10SM BKN006 OVC021 06/06 A3001 RMK AO2 CIG
                 006V021 BKN V SCT =
2016-12-05 08:18 METAR KDOV 051318Z AUTO 22005KT 10SM SCT011 OVC021 05/05 A3000 RMK AO2 CIG
                 010V021 =
2016-12-05 08:13 METAR KDOV 051313Z AUTO 21005KT 10SM BKN011 OVC020 05/05 A2999 RMK AO2 $ =
2016-12-05 08:03 METAR KDOV 051303Z AUTO 20003KT 10SM BKN010 OVC017 05/05 A2999 RMK AO2 $ =
2016-12-05 07:58 METAR KDOV 051258Z AUTO 22004KT 10SM BKN009 BKN017 OVC022 05/05 A2999 =
2016-12-05 07:53 METAR KDOV 051253Z AUTO 21003KT 10SM BKN009 BKN016 OVC022 05/05 A3000 =
2016-12-05 07:48 METAR KDOV 051248Z AUTO 21003KT 10SM BKN010 OVC016 05/05 A3000 RMK AO2 CIG
                 008V010 $ =
2016-12-05 07:33 METAR KDOV 051233Z AUTO 23004KT 10SM BKN009 OVC014 05/05 A3001 RMK AO2 CIG
                 009V013 $ =
2016-12-05 07:23 METAR KDOV 051223Z AUTO 23003KT 10SM FEW006 BKN013 BKN020 OVC029 05/05 A3001 RMK
                 AO2 CIG 013V018 $ =
2016-12-05 07:18 METAR KDOV 051218Z AUTO 22003KT 10SM FEW006 BKN017 OVC029 05/05 A3001 RMK AO2
                 CIG 017V029 $ =
2016-12-05 06:58 METAR KDOV 051158Z AUTO 20003KT 10SM OVC029 05/05 A3000 =
2016-12-05 06:53 METAR KDOV 051153Z AUTO 18003KT 10SM OVC029 05/05 A3000 =
2016-12-05 05:58 METAR KDOV 051058Z AUTO 17004KT 10SM FEW007 BKN040 04/04 A3001 =
2016-12-05 05:51 METAR KDOV 051051Z AUTO 17004KT 10SM SCT007 BKN042 04/04 A3001 RMK AO2
                 DZE04DZB08E09RAB09E20DZB20E26 =
2016-12-05 05:41 METAR KDOV 051041Z AUTO 17005KT 9SM R01/5500FT SCT013 OVC042 04/04 A3001 RMK AO2
                 DZE04DZB08E09RAB09E20DZB20E26 $ =
2016-12-05 05:36 METAR KDOV 051036Z AUTO 19005KT 8SM R01/5500FT BKN016 OVC042 04/04 A3001 RMK AO2
                 DZE04DZB08E09RAB09E20DZB20E26 CIG 016V023 $ =
2016-12-05 05:26 METAR KDOV 051026Z AUTO 20005KT 8SM R01/5500FT BKN023 OVC043 04/04 A3002 RMK AO2
                 DZE04DZB08E09RAB09E20DZB20E26 =
2016-12-05 05:23 METAR KDOV 051023Z AUTO 19005KT 8SM R01/5500FT -DZ BKN021 OVC043 04/04 A3002 RMK
                 AO2 DZE04DZB08E09RAB09E20DZB20 BKN V OVC =
2016-12-05 05:18 METAR KDOV 051018Z AUTO 19005KT 7SM R01/5000FT -RA OVC022 04/04 A3002 RMK AO2
                 DZE04DZB08E09RAB09 =
2016-12-05 05:08 METAR KDOV 051008Z AUTO 21006KT 8SM R01/5500FT -DZ OVC023 04/04 A3002 RMK AO2
                 DZE04DZB08 CIG 013V023 CIG 005 RWY19 $ =
2016-12-05 05:04 METAR KDOV 051004Z AUTO 21005KT 8SM R01/5500FT OVC019 04/04 A3002 RMK AO2 DZE04
                 CIG 013V019 CIG 005 RWY19 $ =
2016-12-05 05:03 METAR KDOV 051003Z AUTO 21005KT 8SM R01/5500FT -DZ FEW007 OVC019 04/04 A3002 =
2016-12-05 04:58 METAR KDOV 050958Z AUTO 21006KT 8SM R01/5500FT -DZ FEW007 BKN014 OVC020 04/04
                 A3003 =
2016-12-05 04:53 METAR KDOV 050953Z AUTO 21005KT 8SM R01/5500FT -RA FEW006 OVC012 04/04 A3002 RMK
                 AO2 CIG 007V012 CIG 005 RWY19 $ =
2016-12-05 04:48 METAR KDOV 050948Z AUTO 21006KT 8SM R01/5500FT -RA SCT006 OVC010 04/04 A3002 RMK
                 AO2 CIG 007V010 CIG 005 RWY19 $ =
2016-12-05 04:43 METAR KDOV 050943Z AUTO 20005KT 10SM -RA OVC007 04/04 A3002 RMK AO2 =
2016-12-05 04:33 METAR KDOV 050933Z AUTO 21006KT 7SM R01/5500FT -RA OVC007 04/04 A3003 RMK AO2
                 OVC V BKN $ =
2016-12-05 04:23 METAR KDOV 050923Z AUTO 22006KT 6SM R01/5000FT -RA BR BKN006 BKN010 OVC018 04/04
                 A3004 RMK AO2 CIG 006V017 BKN006 V SCT CIG 005 RWY19 $ =
2016-12-05 04:18 METAR KDOV 050918Z AUTO 20007KT 6SM R01/5000FT -RA BR SCT007 BKN013 OVC020 04/04
                 A3003 RMK AO2 CIG 013V019 CIG 005 RWY19 $ =
2016-12-05 04:13 METAR KDOV 050913Z AUTO 20007KT 6SM R01/5000FT -RA BR SCT009 OVC017 04/04 A3003
                 RMK AO2 CIG 012 RWY19 $ =
2016-12-05 04:08 METAR KDOV 050908Z AUTO 19007KT 6SM R01/5000FT -RA BR SCT012 OVC020 04/04 A3003
                 RMK AO2 CIG 016V020 CIG 014 RWY19 $ =
2016-12-05 04:03 METAR KDOV 050903Z AUTO 19006KT 6SM R01/5000FT -RA BR BKN016 OVC024 04/04 A3002
                 RMK AO2 CIG 016V036 $ =
2016-12-05 03:58 METAR KDOV 050858Z AUTO 20007KT 6SM R01/5000FT -RA BR SCT014 BKN020 OVC034 04/04
                 A3003 RMK AO2 CIG 020V040 CIG 013 RWY19 SLP173 P0009 60021 T00400040 57016 $ =
2016-12-05 03:18 METAR KDOV 050818Z AUTO 18005KT 6SM R01/5000FT -RA BR FEW037 OVC046 04/04 A3003
                 RMK AO2 =
2016-12-05 02:58 METAR KDOV 050758Z AUTO 18004KT 8SM R01/5500FT -RA FEW036 OVC047 04/04 A3004 =
2016-12-05 02:33 METAR KDOV 050733Z AUTO 16008KT 9SM R01/5500FT -RA BKN045 04/04 A3004 RMK AO2 =
2016-12-05 02:28 METAR KDOV 050728Z AUTO 16007KT 10SM -RA FEW025 BKN045 04/04 A3005 RMK AO2 =
2016-12-05 02:23 METAR KDOV 050723Z AUTO 15009KT 10SM R01/5500FT -RA FEW025 SCT037 BKN047 04/04
                 A3005 RMK AO2 =
2016-12-05 01:58 METAR KDOV 050658Z AUTO 15008KT 10SM -RA FEW024 OVC040 04/04 A3005 RMK AO2
                 SLP179 P0006 T00390039 $ =
2016-12-05 00:58 METAR KDOV 050558Z AUTO 15006KT 10SM -RA OVC049 05/04 A3008 RMK AO2 RAB0458
                 SLP189 P0000 60000 T00460036 10056 20046 57027 $ =
2016-12-05 00:30 METAR KDOV 050530Z AUTO 17007KT 10SM -RA FEW050 05/03 A3010 RMK AO2 RAB0458 =
2016-12-04 23:58 METAR KDOV 050458Z AUTO 16006KT 10SM CLR 05/02 A3011 RMK AO2 RAB57 SLP200
                 T00540019 400860048 $ =
2016-12-04 22:58 METAR KDOV 050358Z AUTO 18004KT 10SM CLR 05/02 A3014 RMK AO2 SLP210 T00540017 $
                 =
2016-12-04 21:58 METAR KDOV 050258Z AUTO 18003KT 10SM BKN080 05/02 A3016 =
2016-12-04 20:58 METAR KDOV 050158Z AUTO 15004KT 10SM SCT085 OVC130 05/01 A3015 RMK AO2 CIG 085
                 RWY19 SLP213 T00530012 $ =
2016-12-04 19:58 METAR KDOV 050058Z AUTO 16004KT 10SM SCT150 05/01 A3016 =
2016-12-04 18:58 METAR KDOV 042358Z AUTO 15004KT 10SM FEW160 05/01 A3018 RMK AO2 SLP223 T00530008
                 10086 20048 58007 $ =
2016-12-04 17:58 METAR KDOV 042258Z AUTO 12004KT 10SM CLR 05/01 A3018 =
2016-12-04 16:58 METAR KDOV 042158Z AUTO 00000KT 10SM OVC180 07/00 A3020 RMK AO2 SLP230 T00671002
                 $ =
2016-12-04 15:58 METAR KDOV 042058Z AUTO 25004KT 10SM FEW200 07/00 A3020 =
2016-12-04 14:58 METAR KDOV 041958Z AUTO 26006KT 10SM CLR 08/00 A3019 =
2016-12-04 13:58 METAR KDOV 041858Z AUTO 31005KT 10SM CLR 08/M01 A3021 RMK AO2 SLP233 T00821009 $
                 =
2016-12-04 12:58 METAR KDOV 041758Z AUTO 29007KT 10SM CLR 09/M01 A3021 RMK AO2 SLP233 T00851007
                 10085 20054 57018 $ =
2016-12-04 11:58 METAR KDOV 041658Z AUTO 34007KT 10SM CLR 08/00 A3021 RMK AO2 SLP233 T00831003 $
                 =

Support USWX by starting your Amazon purchase here.